createdAt,value
2019-01-25T00:02:11.575Z,53.57
2019-01-25T00:04:33.829Z,66.10
2019-01-25T00:06:56.071Z,63.03
2019-01-25T00:09:18.331Z,59.13
2019-01-25T00:11:40.573Z,53.23
2019-01-25T00:14:02.883Z,65.30
2019-01-25T00:16:25.167Z,67.20
2019-01-25T00:18:47.552Z,66.70
2019-01-25T00:21:09.914Z,59.90
2019-01-25T00:23:32.171Z,52.57
2019-01-25T00:25:54.427Z,47.23
2019-01-25T00:28:16.678Z,55.67
2019-01-25T00:30:38.915Z,47.47
2019-01-25T00:33:01.156Z,52.70
2019-01-25T00:35:23.403Z,59.13
2019-01-25T00:39:10.244Z,54.30
2019-01-25T00:41:32.476Z,67.17
2019-01-25T00:43:54.752Z,49.43
2019-01-25T00:46:17.056Z,56.40
2019-01-25T00:48:39.311Z,65.90
2019-01-25T00:51:01.564Z,56.00
2019-01-25T00:53:23.855Z,60.37
2019-01-25T00:55:46.164Z,63.27
2019-01-25T00:58:08.422Z,59.27
2019-01-25T01:00:30.688Z,64.07
2019-01-25T01:02:53.035Z,62.07
2019-01-25T01:05:15.360Z,63.87
2019-01-25T01:07:37.699Z,61.47
2019-01-25T01:09:59.952Z,55.30
2019-01-25T01:12:22.226Z,59.43
2019-01-25T01:14:44.521Z,68.30
2019-01-25T01:17:06.780Z,54.33
2019-01-25T01:19:29.038Z,53.27
2019-01-25T01:21:51.313Z,68.53
2019-01-25T01:24:13.591Z,55.87
2019-01-25T01:28:00.411Z,58.97
2019-01-25T01:30:23.384Z,58.17
2019-01-25T01:32:45.691Z,67.03
2019-01-25T01:35:07.990Z,62.53
2019-01-25T01:37:30.290Z,61.43
2019-01-25T01:39:52.527Z,64.40
2019-01-25T01:42:14.795Z,69.33
2019-01-25T01:44:37.051Z,54.43
2019-01-25T01:46:59.349Z,63.63
2019-01-25T01:49:21.612Z,62.03
2019-01-25T01:51:44.070Z,60.63
2019-01-25T01:54:06.324Z,65.70
2019-01-25T01:56:28.612Z,72.20
2019-01-25T01:58:50.902Z,70.37
2019-01-25T02:01:13.153Z,65.10
2019-01-25T02:03:35.419Z,54.70
2019-01-25T02:05:57.699Z,78.23
2019-01-25T02:08:19.936Z,68.20
2019-01-25T02:10:42.243Z,65.13
2019-01-25T02:13:04.520Z,70.70
2019-01-25T02:15:26.827Z,70.63
2019-01-25T02:17:49.127Z,68.33
2019-01-25T02:20:14.571Z,64.03
2019-01-25T02:22:36.866Z,60.43
2019-01-25T02:24:59.108Z,71.87
2019-01-25T02:27:21.357Z,70.73
2019-01-25T02:29:43.631Z,76.47
2019-01-25T02:32:05.926Z,65.63
2019-01-25T02:34:28.193Z,69.47
2019-01-25T02:36:50.426Z,58.20
2019-01-25T02:39:12.718Z,61.87
2019-01-25T02:41:34.956Z,66.17
2019-01-25T02:43:57.179Z,55.67
2019-01-25T02:46:19.436Z,60.97
2019-01-25T02:48:41.714Z,60.03
2019-01-25T02:51:04.103Z,61.53
2019-01-25T02:53:26.354Z,56.07
2019-01-25T02:55:48.660Z,62.47
2019-01-25T02:58:10.916Z,58.87
2019-01-25T03:00:33.219Z,53.03
2019-01-25T03:02:55.519Z,58.73
2019-01-25T03:05:18.319Z,52.57
2019-01-25T03:07:40.599Z,53.37
2019-01-25T03:10:03.742Z,55.03
2019-01-25T03:12:25.970Z,48.23
2019-01-25T03:14:48.237Z,39.53
2019-01-25T03:17:10.495Z,47.07
2019-01-25T03:19:32.731Z,43.70
2019-01-25T03:21:55.036Z,49.20
2019-01-25T03:24:17.263Z,47.17
2019-01-25T03:26:39.565Z,45.23
2019-01-25T03:29:01.835Z,45.13
2019-01-25T03:31:24.077Z,45.43
2019-01-25T03:33:46.322Z,48.03
2019-01-25T03:36:08.588Z,57.03
2019-01-25T03:38:30.871Z,41.97
2019-01-25T03:40:55.367Z,52.73
2019-01-25T03:43:15.418Z,50.47
2019-01-25T03:45:37.695Z,42.97
2019-01-25T03:47:59.959Z,41.53
2019-01-25T03:50:25.122Z,43.10
2019-01-25T03:52:47.432Z,49.20
2019-01-25T03:55:10.399Z,43.83
2019-01-25T03:57:32.656Z,46.57
2019-01-25T03:59:54.913Z,48.97
2019-01-25T04:02:17.167Z,39.53
2019-01-25T04:04:39.443Z,45.10
2019-01-25T04:07:01.694Z,35.63
2019-01-25T04:09:23.950Z,42.33
2019-01-25T04:11:46.241Z,38.20
2019-01-25T04:14:08.499Z,35.60
2019-01-25T04:16:30.726Z,36.57
2019-01-25T04:18:52.979Z,32.20
2019-01-25T04:21:15.281Z,38.10
2019-01-25T04:23:37.496Z,36.00
2019-01-25T04:25:59.755Z,53.13
2019-01-25T04:28:22.040Z,34.97
2019-01-25T04:30:44.300Z,26.23
2019-01-25T04:33:06.652Z,36.80
2019-01-25T04:35:28.919Z,38.90
2019-01-25T04:37:51.207Z,33.97
2019-01-25T04:40:14.198Z,28.30
2019-01-25T04:42:36.475Z,38.57
2019-01-25T04:44:58.716Z,30.53
2019-01-25T04:47:26.202Z,36.57
2019-01-25T04:49:48.448Z,32.07
2019-01-25T04:52:11.831Z,37.83
2019-01-25T04:54:34.076Z,37.03
2019-01-25T04:56:56.320Z,34.97
2019-01-25T04:59:18.555Z,38.80
2019-01-25T05:01:40.828Z,29.93
2019-01-25T05:04:03.111Z,27.97
2019-01-25T05:06:25.355Z,31.30
2019-01-25T05:08:47.611Z,28.10
2019-01-25T05:11:19.771Z,33.23
2019-01-25T05:13:37.364Z,35.47
2019-01-25T05:15:59.618Z,36.03
2019-01-25T05:18:21.916Z,34.77
2019-01-25T05:20:44.253Z,39.47
2019-01-25T05:23:06.959Z,36.50
2019-01-25T05:25:29.251Z,33.97
2019-01-25T05:27:51.656Z,32.50
2019-01-25T05:30:13.976Z,34.33
2019-01-25T05:32:36.192Z,34.43
2019-01-25T05:34:58.466Z,30.87
2019-01-25T05:37:20.738Z,31.10
2019-01-25T05:39:43.014Z,33.40
2019-01-25T05:42:05.319Z,34.83
2019-01-25T05:44:27.585Z,31.57
2019-01-25T05:46:49.820Z,29.50
2019-01-25T05:49:12.119Z,39.43
2019-01-25T05:51:34.427Z,29.70
2019-01-25T05:53:56.668Z,39.37
2019-01-25T05:56:19.367Z,28.40
2019-01-25T05:58:41.661Z,30.77
2019-01-25T06:01:04.025Z,35.43
2019-01-25T06:03:26.298Z,35.23
2019-01-25T06:05:48.582Z,32.13
2019-01-25T06:08:18.474Z,34.83
2019-01-25T06:10:40.884Z,31.50
2019-01-25T06:13:03.333Z,28.97
2019-01-25T06:15:28.325Z,29.50
2019-01-25T06:17:50.575Z,42.10
2019-01-25T06:20:12.878Z,29.57
2019-01-25T06:22:35.147Z,31.23
2019-01-25T06:24:57.379Z,33.47
2019-01-25T06:27:19.645Z,32.50
2019-01-25T06:29:41.895Z,38.97
2019-01-25T06:32:04.186Z,36.10
2019-01-25T06:34:26.432Z,38.80
2019-01-25T06:36:48.700Z,37.10
2019-01-25T06:39:11.016Z,36.87
2019-01-25T06:41:33.291Z,34.77
2019-01-25T06:43:55.531Z,35.90
2019-01-25T06:46:17.788Z,47.67
2019-01-25T06:48:40.023Z,39.93
2019-01-25T06:51:02.297Z,42.90
2019-01-25T06:53:24.543Z,39.13
2019-01-25T06:55:46.831Z,39.93
2019-01-25T06:58:14.620Z,44.10
2019-01-25T07:00:37.239Z,34.23
2019-01-25T07:02:59.571Z,33.13
2019-01-25T07:05:21.814Z,35.90
2019-01-25T07:07:44.219Z,34.77
2019-01-25T07:10:10.827Z,34.40
2019-01-25T07:12:33.133Z,39.40
2019-01-25T07:14:55.436Z,39.50
2019-01-25T07:17:17.726Z,36.43
2019-01-25T07:19:39.943Z,33.67
2019-01-25T07:22:02.248Z,33.53
2019-01-25T07:24:24.539Z,37.67
2019-01-25T07:26:46.795Z,38.70
2019-01-25T07:29:09.066Z,34.40
2019-01-25T07:31:31.304Z,40.33
2019-01-25T07:33:53.709Z,38.80
2019-01-25T07:36:16.027Z,35.03
2019-01-25T07:38:38.268Z,35.33
2019-01-25T07:41:00.527Z,36.57
2019-01-25T07:43:22.868Z,34.37
2019-01-25T07:45:45.119Z,33.53
2019-01-25T07:48:07.417Z,39.43
2019-01-25T07:50:29.771Z,34.47
2019-01-25T07:52:52.051Z,30.30
2019-01-25T07:55:14.374Z,40.20
2019-01-25T07:57:36.649Z,30.53
2019-01-25T07:59:58.921Z,27.93
2019-01-25T08:02:21.231Z,37.53
2019-01-25T08:04:43.508Z,40.30
2019-01-25T08:07:05.793Z,42.23
2019-01-25T08:09:28.080Z,40.37
2019-01-25T08:11:50.365Z,40.57
2019-01-25T08:14:12.938Z,39.23
2019-01-25T08:16:34.904Z,37.90
2019-01-25T08:18:57.147Z,39.20
2019-01-25T08:21:19.405Z,37.63
2019-01-25T08:23:41.678Z,36.43
2019-01-25T08:26:04.039Z,46.13
2019-01-25T08:28:26.245Z,42.10
2019-01-25T08:30:48.566Z,38.07
2019-01-25T08:34:35.355Z,33.23
2019-01-25T08:36:57.641Z,43.90
2019-01-25T08:39:19.891Z,42.50
2019-01-25T08:41:42.144Z,39.60
2019-01-25T08:44:04.408Z,49.93
2019-01-25T08:46:26.660Z,43.13
2019-01-25T08:48:49.074Z,39.73
2019-01-25T08:51:11.592Z,48.37
2019-01-25T08:53:33.730Z,42.90
2019-01-25T08:55:56.018Z,36.30
2019-01-25T08:58:18.283Z,38.80
2019-01-25T09:00:40.567Z,47.77
2019-01-25T09:03:02.921Z,35.00
2019-01-25T09:05:25.201Z,38.60
2019-01-25T09:07:47.499Z,44.17
2019-01-25T09:10:12.339Z,39.47
2019-01-25T09:12:34.680Z,39.63
2019-01-25T09:14:56.943Z,46.90
2019-01-25T09:17:19.223Z,47.60
2019-01-25T09:19:41.477Z,51.23
2019-01-25T09:22:03.817Z,45.00
2019-01-25T09:24:26.042Z,43.73
2019-01-25T09:26:48.295Z,51.53
2019-01-25T09:29:10.573Z,38.27
2019-01-25T09:31:32.858Z,44.40
2019-01-25T09:33:55.097Z,42.33
2019-01-25T09:36:17.412Z,47.00
2019-01-25T09:38:39.680Z,40.30
2019-01-25T09:41:02.130Z,52.33
2019-01-25T09:43:24.421Z,42.20
2019-01-25T09:45:46.671Z,44.80
2019-01-25T09:48:08.925Z,49.63
2019-01-25T09:50:31.208Z,44.60
2019-01-25T09:52:53.453Z,46.57
2019-01-25T09:55:17.719Z,53.40
2019-01-25T09:57:40.004Z,51.93
2019-01-25T10:00:02.335Z,47.20
2019-01-25T10:02:24.632Z,48.47
2019-01-25T10:04:46.884Z,50.50
2019-01-25T10:07:09.207Z,46.77
2019-01-25T10:09:31.479Z,47.43
2019-01-25T10:11:53.758Z,42.63
2019-01-25T10:14:16.075Z,49.33
2019-01-25T10:16:38.388Z,62.17
2019-01-25T10:19:00.672Z,53.73
2019-01-25T10:21:22.951Z,59.13
2019-01-25T10:23:45.184Z,54.37
2019-01-25T10:26:07.463Z,47.80
2019-01-25T10:28:29.799Z,45.27
2019-01-25T10:30:52.160Z,56.73
2019-01-25T10:33:14.411Z,50.20
2019-01-25T10:35:36.709Z,52.17
2019-01-25T10:37:59.016Z,49.87
2019-01-25T10:40:21.395Z,47.53
2019-01-25T10:42:45.635Z,56.03
2019-01-25T10:45:11.321Z,53.00
2019-01-25T10:47:33.619Z,57.03
2019-01-25T10:49:55.927Z,47.23
2019-01-25T10:52:18.170Z,55.17
2019-01-25T10:54:40.433Z,56.47
2019-01-25T10:57:02.890Z,55.17
2019-01-25T10:59:25.234Z,56.03
2019-01-25T11:01:47.487Z,56.30
2019-01-25T11:04:11.610Z,52.77
2019-01-25T11:06:32.067Z,50.33
2019-01-25T11:08:54.367Z,50.17
2019-01-25T11:11:16.664Z,46.80
2019-01-25T11:13:38.926Z,47.87
2019-01-25T11:16:01.235Z,54.13
2019-01-25T11:18:23.533Z,42.37
2019-01-25T11:20:45.795Z,44.53
2019-01-25T11:23:08.040Z,44.87
2019-01-25T11:25:32.695Z,39.13
2019-01-25T11:27:55.029Z,46.40
2019-01-25T11:30:17.331Z,50.77
2019-01-25T11:32:39.663Z,51.97
2019-01-25T11:35:01.934Z,41.33
2019-01-25T11:37:24.223Z,43.73
2019-01-25T11:39:49.247Z,48.77
2019-01-25T11:42:08.821Z,47.30
2019-01-25T11:44:31.166Z,40.60
2019-01-25T11:46:53.482Z,45.83
2019-01-25T11:49:15.887Z,45.03
2019-01-25T11:51:38.161Z,52.53
2019-01-25T11:54:00.419Z,44.03
2019-01-25T11:56:22.715Z,49.40
2019-01-25T11:58:44.979Z,42.50
2019-01-25T12:01:07.299Z,45.20
2019-01-25T12:03:29.581Z,46.80
2019-01-25T12:05:51.868Z,44.37
2019-01-25T12:08:14.193Z,40.93
2019-01-25T12:10:36.691Z,48.77
2019-01-25T12:12:58.945Z,42.37
2019-01-25T12:15:21.245Z,40.13
2019-01-25T12:17:43.514Z,43.07
2019-01-25T12:20:08.252Z,39.17
2019-01-25T12:22:30.585Z,45.67
2019-01-25T12:24:52.831Z,44.17
2019-01-25T12:27:15.087Z,44.07
2019-01-25T12:29:37.363Z,44.40
2019-01-25T12:32:01.181Z,40.07
2019-01-25T12:34:21.867Z,40.87
2019-01-25T12:36:44.176Z,39.53
2019-01-25T12:39:07.918Z,43.20
2019-01-25T12:41:30.184Z,47.63
2019-01-25T12:43:52.435Z,33.87
2019-01-25T12:46:14.699Z,40.07
2019-01-25T12:48:37.006Z,38.97
2019-01-25T12:51:14.466Z,40.07
2019-01-25T12:53:36.751Z,36.37
2019-01-25T12:55:59.045Z,36.10
2019-01-25T12:58:21.387Z,33.17
2019-01-25T13:00:43.671Z,39.33
2019-01-25T13:03:06.005Z,34.90
2019-01-25T13:05:28.276Z,32.73
2019-01-25T13:07:50.630Z,33.90
2019-01-25T13:10:13.787Z,32.70
2019-01-25T13:12:36.150Z,35.80
2019-01-25T13:14:58.472Z,36.20
2019-01-25T13:17:20.731Z,30.90
2019-01-25T13:19:43.006Z,31.17
2019-01-25T13:22:05.279Z,32.27
2019-01-25T13:24:27.627Z,33.17
2019-01-25T13:26:49.964Z,29.70
2019-01-25T13:29:12.239Z,33.53
2019-01-25T13:31:34.520Z,36.30
2019-01-25T13:33:56.793Z,36.30
2019-01-25T13:36:19.052Z,39.67
2019-01-25T13:38:41.352Z,37.20
2019-01-25T13:41:03.639Z,30.80
2019-01-25T13:43:26.077Z,28.60
2019-01-25T13:45:48.615Z,33.47
2019-01-25T13:48:11.031Z,27.97
2019-01-25T13:50:33.295Z,29.73
2019-01-25T13:52:55.666Z,30.20
2019-01-25T13:55:18.048Z,38.83
2019-01-25T13:57:40.486Z,32.07
2019-01-25T14:00:03.760Z,36.07
2019-01-25T14:02:26.021Z,34.63
2019-01-25T14:04:48.347Z,34.70
2019-01-25T14:07:10.772Z,30.27
2019-01-25T14:09:33.035Z,32.07
2019-01-25T14:11:55.290Z,34.07
2019-01-25T14:14:17.572Z,35.23
2019-01-25T14:16:40.002Z,40.07
2019-01-25T14:19:02.314Z,34.97
2019-01-25T14:21:24.665Z,37.93
2019-01-25T14:23:47.064Z,38.97
2019-01-25T14:26:09.359Z,37.33
2019-01-25T14:28:31.998Z,39.63
2019-01-25T14:30:54.539Z,39.40
2019-01-25T14:33:17.141Z,36.27
2019-01-25T14:35:40.431Z,46.17
2019-01-25T14:38:02.976Z,42.97
2019-01-25T14:40:25.276Z,44.37
2019-01-25T14:42:47.699Z,44.07
2019-01-25T14:45:10.570Z,44.07
2019-01-25T14:47:33.188Z,41.20
2019-01-25T14:49:55.519Z,40.10
2019-01-25T14:52:17.872Z,41.33
2019-01-25T14:54:40.142Z,35.67
2019-01-25T14:57:02.421Z,35.97
2019-01-25T14:59:25.087Z,33.97
2019-01-25T15:01:48.394Z,37.87
2019-01-25T15:04:10.851Z,31.37
2019-01-25T15:06:33.196Z,36.10
2019-01-25T15:08:55.548Z,30.20
2019-01-25T15:11:19.579Z,32.03
2019-01-25T15:13:40.871Z,27.87
2019-01-25T15:16:03.325Z,25.90
2019-01-25T15:18:25.752Z,23.10
2019-01-25T15:20:48.063Z,25.27
2019-01-25T15:23:10.414Z,28.40
2019-01-25T15:25:33.215Z,24.80
2019-01-25T15:27:56.132Z,23.40
2019-01-25T15:30:21.297Z,21.73
2019-01-25T15:32:44.120Z,23.73
2019-01-25T15:35:08.114Z,26.07
2019-01-25T15:37:31.028Z,21.93
2019-01-25T15:39:54.123Z,16.97
2019-01-25T15:42:16.871Z,20.50
2019-01-25T15:44:39.680Z,23.00
2019-01-25T15:47:02.835Z,20.93
2019-01-25T15:49:26.171Z,19.63
2019-01-25T15:51:49.511Z,23.13
2019-01-25T15:54:12.693Z,17.97
2019-01-25T15:56:35.703Z,25.23
2019-01-25T15:58:59.144Z,20.27
2019-01-25T16:01:22.229Z,21.20
2019-01-25T16:03:45.153Z,23.27
2019-01-25T16:06:07.963Z,24.63
2019-01-25T16:08:31.225Z,16.63
2019-01-25T16:10:54.559Z,19.27
2019-01-25T16:13:17.532Z,15.43
2019-01-25T16:15:40.587Z,23.73
2019-01-25T16:18:04.170Z,19.10
2019-01-25T16:21:51.606Z,17.30
2019-01-25T16:24:14.782Z,29.40
2019-01-25T16:26:37.728Z,21.97
2019-01-25T16:29:00.786Z,15.87
2019-01-25T16:31:24.123Z,23.67
2019-01-25T16:33:47.380Z,21.20
2019-01-25T16:36:10.288Z,21.07
2019-01-25T16:38:33.504Z,17.17
2019-01-25T16:40:56.579Z,23.13
2019-01-25T16:43:19.855Z,17.97
2019-01-25T16:45:43.544Z,18.63
2019-01-25T16:48:07.317Z,16.30
2019-01-25T16:50:30.429Z,15.40
2019-01-25T16:52:53.725Z,15.43
2019-01-25T16:55:16.720Z,18.10
2019-01-25T16:57:39.467Z,19.73
2019-01-25T17:00:02.511Z,26.00
2019-01-25T17:02:25.496Z,17.80
2019-01-25T17:04:48.752Z,16.37
2019-01-25T17:07:11.020Z,19.13
2019-01-25T17:09:33.267Z,22.27
2019-01-25T17:11:55.528Z,21.10
2019-01-25T17:14:17.777Z,19.23
2019-01-25T17:16:40.024Z,22.30
2019-01-25T17:19:02.341Z,23.67
2019-01-25T17:21:24.743Z,20.57
2019-01-25T17:23:47.105Z,20.77
2019-01-25T17:26:09.399Z,22.33
2019-01-25T17:28:32.288Z,22.40
2019-01-25T17:30:56.419Z,21.07
2019-01-25T17:33:20.021Z,24.43
2019-01-25T17:35:43.538Z,16.33
2019-01-25T17:38:07.961Z,20.80
2019-01-25T17:40:34.591Z,25.17
2019-01-25T17:42:58.095Z,20.63
2019-01-25T17:45:21.594Z,26.13
2019-01-25T17:47:44.872Z,25.67
2019-01-25T17:50:09.260Z,25.13
2019-01-25T17:52:32.327Z,24.53
2019-01-25T17:56:20.275Z,22.73
2019-01-25T17:58:44.479Z,19.03
2019-01-25T18:01:08.167Z,21.60
2019-01-25T18:03:31.474Z,16.73
2019-01-25T18:05:54.295Z,17.93
2019-01-25T18:08:17.827Z,20.83
2019-01-25T18:10:41.355Z,18.70
2019-01-25T18:13:04.919Z,19.93
2019-01-25T18:15:28.779Z,20.20
2019-01-25T18:17:52.750Z,22.93
2019-01-25T18:20:16.979Z,15.70
2019-01-25T18:22:40.655Z,15.87
2019-01-25T18:25:04.451Z,21.80
2019-01-25T18:27:28.179Z,16.60
2019-01-25T18:29:56.730Z,19.30
2019-01-25T18:32:20.677Z,25.53
2019-01-25T18:34:44.547Z,19.60
2019-01-25T18:37:08.169Z,22.07
2019-01-25T18:39:32.427Z,24.60
2019-01-25T18:41:56.481Z,20.83
2019-01-25T18:44:20.536Z,17.50
2019-01-25T18:46:44.388Z,24.47
2019-01-25T18:49:08.009Z,21.93
2019-01-25T18:51:31.781Z,24.63
2019-01-25T18:53:55.671Z,22.00
2019-01-25T18:56:21.183Z,17.20
2019-01-25T18:58:45.756Z,20.50
2019-01-25T19:01:09.898Z,18.77
2019-01-25T19:03:34.424Z,18.17
2019-01-25T19:05:58.717Z,17.60
2019-01-25T19:08:23.232Z,18.53
2019-01-25T19:10:47.378Z,17.13
2019-01-25T19:13:11.559Z,20.20
2019-01-25T19:15:35.981Z,17.73
2019-01-25T19:18:00.209Z,22.77
2019-01-25T19:20:23.997Z,17.60
2019-01-25T19:22:48.055Z,20.87
2019-01-25T19:25:12.174Z,20.67
2019-01-25T19:27:36.375Z,22.87
2019-01-25T19:30:00.523Z,18.90
2019-01-25T19:32:25.142Z,19.37
2019-01-25T19:34:49.182Z,17.10
2019-01-25T19:37:13.586Z,21.83
2019-01-25T19:39:37.519Z,20.57
2019-01-25T19:42:01.688Z,17.40
2019-01-25T19:44:25.771Z,20.83
2019-01-25T19:46:49.587Z,23.20
2019-01-25T19:56:07.488Z,24.63
2019-01-25T19:58:31.695Z,19.23
2019-01-25T20:00:56.306Z,19.47
2019-01-25T20:03:20.516Z,18.83
2019-01-25T20:05:44.931Z,22.97
2019-01-25T20:08:09.695Z,19.70
2019-01-25T20:10:34.585Z,22.07
2019-01-25T20:12:59.211Z,21.33
2019-01-25T20:15:23.945Z,21.50
2019-01-25T20:17:48.304Z,22.00
2019-01-25T20:20:15.827Z,23.17
2019-01-25T20:22:40.361Z,19.90
2019-01-25T20:25:04.396Z,24.10
2019-01-25T20:27:28.478Z,26.50
2019-01-25T20:29:52.496Z,27.83
2019-01-25T20:32:17.057Z,24.23
2019-01-25T20:34:41.732Z,21.60
2019-01-25T20:37:06.263Z,27.87
2019-01-25T20:39:30.591Z,23.23
2019-01-25T20:41:55.191Z,25.43
2019-01-25T20:44:19.189Z,23.00
2019-01-25T20:46:43.387Z,28.03
2019-01-25T20:49:07.532Z,24.20
2019-01-25T20:51:32.322Z,19.63
2019-01-25T20:53:56.871Z,25.07
2019-01-25T20:56:20.965Z,24.30
2019-01-25T20:58:45.365Z,25.43
2019-01-25T21:01:09.304Z,21.63
2019-01-25T21:03:33.411Z,22.47
2019-01-25T21:05:57.251Z,21.33
2019-01-25T21:08:21.210Z,25.27
2019-01-25T21:10:45.270Z,23.17
2019-01-25T21:13:09.240Z,20.33
2019-01-25T21:15:35.364Z,25.97
2019-01-25T21:17:57.745Z,25.57
2019-01-25T21:20:31.212Z,27.33
2019-01-25T21:22:55.480Z,22.37
2019-01-25T21:25:19.252Z,19.43
2019-01-25T21:27:43.479Z,20.93
2019-01-25T21:30:09.167Z,26.80
2019-01-25T21:32:33.181Z,23.67
2019-01-25T21:34:57.041Z,23.80
2019-01-25T21:37:21.027Z,25.63
2019-01-25T21:39:45.018Z,19.63
2019-01-25T21:42:09.036Z,21.20
2019-01-25T21:44:32.663Z,25.40
2019-01-25T21:46:56.398Z,28.77
2019-01-25T21:49:20.270Z,24.03
2019-01-25T21:51:44.206Z,24.27
2019-01-25T21:54:07.560Z,25.40
2019-01-25T21:56:30.517Z,27.30
2019-01-25T21:58:53.635Z,21.93
2019-01-25T22:01:16.888Z,31.80
2019-01-25T22:03:40.150Z,28.63
2019-01-25T22:06:02.938Z,31.23
2019-01-25T22:08:25.728Z,24.90
2019-01-25T22:10:49.879Z,23.80
2019-01-25T22:13:13.412Z,30.93
2019-01-25T22:15:36.851Z,23.17
2019-01-25T22:17:59.904Z,28.97
2019-01-25T22:20:24.803Z,23.50
2019-01-25T22:22:47.782Z,24.40
2019-01-25T22:25:10.879Z,29.90
2019-01-25T22:27:33.991Z,25.37
2019-01-25T22:29:56.845Z,25.53
2019-01-25T22:32:19.809Z,19.20
2019-01-25T22:34:42.911Z,21.67
2019-01-25T22:37:05.630Z,31.00
2019-01-25T22:39:28.387Z,26.57
2019-01-25T22:41:50.856Z,26.20
2019-01-25T22:44:14.057Z,26.90
2019-01-25T22:46:36.725Z,30.97
2019-01-25T22:48:59.427Z,29.33
2019-01-25T22:51:21.708Z,33.07
2019-01-25T22:53:43.999Z,28.17
2019-01-25T22:56:06.363Z,37.23
2019-01-25T22:58:28.768Z,31.53
2019-01-25T23:01:04.815Z,28.87
2019-01-25T23:03:30.878Z,26.63
2019-01-25T23:06:33.583Z,30.10
2019-01-25T23:08:57.497Z,24.20
2019-01-25T23:11:19.775Z,28.03
2019-01-25T23:13:42.153Z,27.43
2019-01-25T23:16:06.418Z,24.43
2019-01-25T23:18:26.750Z,27.57
2019-01-25T23:20:49.059Z,25.10
2019-01-25T23:23:11.316Z,27.20
2019-01-25T23:25:33.568Z,26.87
2019-01-25T23:27:55.848Z,26.77
2019-01-25T23:30:18.175Z,27.90
2019-01-25T23:32:40.431Z,32.30
2019-01-25T23:35:02.694Z,28.20
2019-01-25T23:37:25.071Z,27.27
2019-01-25T23:39:47.359Z,23.67
2019-01-25T23:42:09.647Z,36.13
2019-01-25T23:44:31.939Z,31.33
2019-01-25T23:46:54.197Z,28.57
2019-01-25T23:49:16.454Z,23.10
2019-01-25T23:51:38.730Z,30.87
2019-01-25T23:54:00.986Z,31.87
2019-01-25T23:56:23.230Z,28.03
2019-01-25T23:58:45.480Z,26.60
